sensor_id;sensor_type;location;lat;lon;timestamp;P1;durP1;ratioP1;P2;durP2;ratioP2
18752;SDS011;9505;50.882;5.350;2023-03-14T00:00:35;38.25;;;5.03;;
18752;SDS011;9505;50.882;5.350;2023-03-14T00:03:01;42.50;;;5.57;;
18752;SDS011;9505;50.882;5.350;2023-03-14T00:05:27;35.13;;;4.50;;
18752;SDS011;9505;50.882;5.350;2023-03-14T00:07:52;24.17;;;3.72;;
18752;SDS011;9505;50.882;5.350;2023-03-14T00:10:18;35.00;;;4.03;;
18752;SDS011;9505;50.882;5.350;2023-03-14T00:12:44;30.40;;;4.15;;
18752;SDS011;9505;50.882;5.350;2023-03-14T00:15:10;35.50;;;4.18;;
18752;SDS011;9505;50.882;5.350;2023-03-14T00:17:37;28.10;;;3.47;;
18752;SDS011;9505;50.882;5.350;2023-03-14T00:20:04;27.40;;;3.50;;
18752;SDS011;9505;50.882;5.350;2023-03-14T00:22:36;30.92;;;4.03;;
18752;SDS011;9505;50.882;5.350;2023-03-14T00:25:03;35.28;;;4.72;;
18752;SDS011;9505;50.882;5.350;2023-03-14T00:27:30;26.48;;;3.70;;
18752;SDS011;9505;50.882;5.350;2023-03-14T00:29:57;27.92;;;3.30;;
18752;SDS011;9505;50.882;5.350;2023-03-14T00:32:23;30.55;;;4.65;;
18752;SDS011;9505;50.882;5.350;2023-03-14T00:34:48;33.00;;;3.83;;
18752;SDS011;9505;50.882;5.350;2023-03-14T00:37:14;30.30;;;4.00;;
18752;SDS011;9505;50.882;5.350;2023-03-14T00:39:40;30.20;;;3.60;;
18752;SDS011;9505;50.882;5.350;2023-03-14T00:42:06;28.42;;;3.28;;
18752;SDS011;9505;50.882;5.350;2023-03-14T00:44:31;31.85;;;4.05;;
18752;SDS011;9505;50.882;5.350;2023-03-14T00:46:58;26.60;;;3.70;;
18752;SDS011;9505;50.882;5.350;2023-03-14T00:49:23;34.85;;;4.50;;
18752;SDS011;9505;50.882;5.350;2023-03-14T00:51:49;42.92;;;5.10;;
18752;SDS011;9505;50.882;5.350;2023-03-14T00:54:16;28.58;;;4.15;;
18752;SDS011;9505;50.882;5.350;2023-03-14T00:56:42;25.30;;;3.97;;
18752;SDS011;9505;50.882;5.350;2023-03-14T00:59:08;36.28;;;3.65;;
18752;SDS011;9505;50.882;5.350;2023-03-14T01:01:34;32.50;;;4.15;;
18752;SDS011;9505;50.882;5.350;2023-03-14T01:04:00;31.95;;;4.05;;
18752;SDS011;9505;50.882;5.350;2023-03-14T01:06:27;40.17;;;4.32;;
18752;SDS011;9505;50.882;5.350;2023-03-14T01:08:54;30.17;;;3.78;;
18752;SDS011;9505;50.882;5.350;2023-03-14T01:11:30;35.60;;;5.25;;
18752;SDS011;9505;50.882;5.350;2023-03-14T01:13:57;30.90;;;3.65;;
18752;SDS011;9505;50.882;5.350;2023-03-14T01:16:24;36.30;;;4.65;;
18752;SDS011;9505;50.882;5.350;2023-03-14T01:18:51;42.15;;;5.00;;
18752;SDS011;9505;50.882;5.350;2023-03-14T01:23:53;31.95;;;3.97;;
18752;SDS011;9505;50.882;5.350;2023-03-14T01:26:21;33.90;;;4.18;;
18752;SDS011;9505;50.882;5.350;2023-03-14T01:28:49;22.88;;;3.28;;
18752;SDS011;9505;50.882;5.350;2023-03-14T01:31:15;29.65;;;3.78;;
18752;SDS011;9505;50.882;5.350;2023-03-14T01:33:41;34.67;;;4.22;;
18752;SDS011;9505;50.882;5.350;2023-03-14T01:36:07;38.30;;;4.53;;
18752;SDS011;9505;50.882;5.350;2023-03-14T01:38:36;36.30;;;4.45;;
18752;SDS011;9505;50.882;5.350;2023-03-14T01:41:04;34.00;;;4.65;;
18752;SDS011;9505;50.882;5.350;2023-03-14T01:43:31;31.90;;;4.97;;
18752;SDS011;9505;50.882;5.350;2023-03-14T01:54:02;28.85;;;3.83;;
18752;SDS011;9505;50.882;5.350;2023-03-14T01:56:42;29.33;;;3.83;;
18752;SDS011;9505;50.882;5.350;2023-03-14T01:59:12;34.83;;;4.75;;
18752;SDS011;9505;50.882;5.350;2023-03-14T02:01:38;37.03;;;4.00;;
18752;SDS011;9505;50.882;5.350;2023-03-14T02:04:07;31.90;;;4.13;;
18752;SDS011;9505;50.882;5.350;2023-03-14T02:06:57;32.50;;;4.53;;
18752;SDS011;9505;50.882;5.350;2023-03-14T02:09:38;28.25;;;4.10;;
18752;SDS011;9505;50.882;5.350;2023-03-14T02:12:05;36.55;;;4.22;;
18752;SDS011;9505;50.882;5.350;2023-03-14T02:14:33;44.53;;;7.53;;
18752;SDS011;9505;50.882;5.350;2023-03-14T02:17:01;30.80;;;4.28;;
18752;SDS011;9505;50.882;5.350;2023-03-14T02:19:35;34.55;;;4.18;;
18752;SDS011;9505;50.882;5.350;2023-03-14T02:22:07;34.63;;;3.95;;
18752;SDS011;9505;50.882;5.350;2023-03-14T02:27:14;39.47;;;3.92;;
18752;SDS011;9505;50.882;5.350;2023-03-14T02:30:03;41.15;;;4.30;;
18752;SDS011;9505;50.882;5.350;2023-03-14T02:32:30;32.20;;;4.18;;
18752;SDS011;9505;50.882;5.350;2023-03-14T02:34:58;39.00;;;4.55;;
18752;SDS011;9505;50.882;5.350;2023-03-14T02:37:30;28.17;;;3.92;;
18752;SDS011;9505;50.882;5.350;2023-03-14T02:40:01;29.65;;;4.05;;
18752;SDS011;9505;50.882;5.350;2023-03-14T02:42:29;37.75;;;4.18;;
18752;SDS011;9505;50.882;5.350;2023-03-14T02:44:59;47.15;;;4.30;;
18752;SDS011;9505;50.882;5.350;2023-03-14T02:47:27;36.30;;;4.38;;
18752;SDS011;9505;50.882;5.350;2023-03-14T02:49:57;25.80;;;3.88;;
18752;SDS011;9505;50.882;5.350;2023-03-14T02:52:28;37.28;;;3.97;;
18752;SDS011;9505;50.882;5.350;2023-03-14T02:54:54;42.08;;;4.55;;
18752;SDS011;9505;50.882;5.350;2023-03-14T02:57:19;25.85;;;3.30;;
18752;SDS011;9505;50.882;5.350;2023-03-14T02:59:46;32.63;;;3.67;;
18752;SDS011;9505;50.882;5.350;2023-03-14T03:02:12;34.42;;;4.30;;
18752;SDS011;9505;50.882;5.350;2023-03-14T03:04:37;31.70;;;4.00;;
18752;SDS011;9505;50.882;5.350;2023-03-14T03:07:03;29.83;;;3.72;;
18752;SDS011;9505;50.882;5.350;2023-03-14T03:09:28;29.67;;;3.40;;
18752;SDS011;9505;50.882;5.350;2023-03-14T03:11:54;30.05;;;3.55;;
18752;SDS011;9505;50.882;5.350;2023-03-14T03:14:20;29.00;;;3.72;;
18752;SDS011;9505;50.882;5.350;2023-03-14T03:16:45;37.78;;;7.03;;
18752;SDS011;9505;50.882;5.350;2023-03-14T03:19:11;34.10;;;4.80;;
18752;SDS011;9505;50.882;5.350;2023-03-14T03:21:38;35.05;;;4.80;;
18752;SDS011;9505;50.882;5.350;2023-03-14T03:24:04;41.40;;;4.93;;
18752;SDS011;9505;50.882;5.350;2023-03-14T03:26:30;43.13;;;5.05;;
18752;SDS011;9505;50.882;5.350;2023-03-14T03:28:55;31.63;;;4.50;;
18752;SDS011;9505;50.882;5.350;2023-03-14T03:31:21;38.20;;;4.18;;
18752;SDS011;9505;50.882;5.350;2023-03-14T03:33:47;27.17;;;4.20;;
18752;SDS011;9505;50.882;5.350;2023-03-14T03:36:12;31.70;;;4.57;;
18752;SDS011;9505;50.882;5.350;2023-03-14T03:38:38;35.15;;;4.57;;
18752;SDS011;9505;50.882;5.350;2023-03-14T03:41:06;35.15;;;4.80;;
18752;SDS011;9505;50.882;5.350;2023-03-14T03:43:32;47.33;;;5.97;;
18752;SDS011;9505;50.882;5.350;2023-03-14T03:45:59;38.80;;;5.30;;
18752;SDS011;9505;50.882;5.350;2023-03-14T03:48:28;38.15;;;5.45;;
18752;SDS011;9505;50.882;5.350;2023-03-14T03:50:54;48.13;;;5.78;;
18752;SDS011;9505;50.882;5.350;2023-03-14T03:53:19;42.00;;;5.47;;
18752;SDS011;9505;50.882;5.350;2023-03-14T03:55:45;41.35;;;4.72;;
18752;SDS011;9505;50.882;5.350;2023-03-14T03:58:10;34.97;;;4.47;;
18752;SDS011;9505;50.882;5.350;2023-03-14T04:00:36;40.75;;;4.97;;
18752;SDS011;9505;50.882;5.350;2023-03-14T04:03:02;70.05;;;8.65;;
18752;SDS011;9505;50.882;5.350;2023-03-14T04:05:27;31.25;;;4.28;;
18752;SDS011;9505;50.882;5.350;2023-03-14T04:07:53;40.55;;;5.20;;
18752;SDS011;9505;50.882;5.350;2023-03-14T04:10:18;36.05;;;3.95;;
18752;SDS011;9505;50.882;5.350;2023-03-14T04:12:44;43.60;;;4.78;;
18752;SDS011;9505;50.882;5.350;2023-03-14T04:15:09;40.25;;;4.32;;
18752;SDS011;9505;50.882;5.350;2023-03-14T04:17:35;35.50;;;4.50;;
18752;SDS011;9505;50.882;5.350;2023-03-14T04:20:01;31.88;;;4.68;;
18752;SDS011;9505;50.882;5.350;2023-03-14T04:22:27;36.95;;;5.40;;
18752;SDS011;9505;50.882;5.350;2023-03-14T04:24:53;38.05;;;4.75;;
18752;SDS011;9505;50.882;5.350;2023-03-14T04:27:19;33.10;;;4.10;;
18752;SDS011;9505;50.882;5.350;2023-03-14T04:29:44;32.88;;;4.70;;
18752;SDS011;9505;50.882;5.350;2023-03-14T04:32:10;34.22;;;4.47;;
18752;SDS011;9505;50.882;5.350;2023-03-14T04:34:35;34.60;;;5.10;;
18752;SDS011;9505;50.882;5.350;2023-03-14T04:37:01;34.55;;;5.30;;
18752;SDS011;9505;50.882;5.350;2023-03-14T04:39:27;30.67;;;3.80;;
18752;SDS011;9505;50.882;5.350;2023-03-14T04:41:52;28.52;;;3.60;;
18752;SDS011;9505;50.882;5.350;2023-03-14T04:44:18;28.98;;;3.65;;
18752;SDS011;9505;50.882;5.350;2023-03-14T04:46:43;30.25;;;4.15;;
18752;SDS011;9505;50.882;5.350;2023-03-14T04:49:09;28.77;;;3.78;;
18752;SDS011;9505;50.882;5.350;2023-03-14T04:51:34;32.72;;;5.25;;
18752;SDS011;9505;50.882;5.350;2023-03-14T04:54:00;25.67;;;3.20;;
18752;SDS011;9505;50.882;5.350;2023-03-14T04:56:26;29.38;;;3.22;;
18752;SDS011;9505;50.882;5.350;2023-03-14T04:58:52;28.42;;;3.75;;
18752;SDS011;9505;50.882;5.350;2023-03-14T05:01:18;26.73;;;3.50;;
18752;SDS011;9505;50.882;5.350;2023-03-14T05:03:43;23.65;;;3.60;;
18752;SDS011;9505;50.882;5.350;2023-03-14T05:06:09;28.65;;;3.90;;
18752;SDS011;9505;50.882;5.350;2023-03-14T05:08:34;29.10;;;3.95;;
18752;SDS011;9505;50.882;5.350;2023-03-14T05:11:00;24.95;;;3.45;;
18752;SDS011;9505;50.882;5.350;2023-03-14T05:13:26;22.80;;;2.83;;
18752;SDS011;9505;50.882;5.350;2023-03-14T05:15:51;23.95;;;3.40;;
18752;SDS011;9505;50.882;5.350;2023-03-14T05:18:17;20.08;;;3.10;;
18752;SDS011;9505;50.882;5.350;2023-03-14T05:20:43;29.58;;;3.85;;
18752;SDS011;9505;50.882;5.350;2023-03-14T05:23:09;24.80;;;3.25;;
18752;SDS011;9505;50.882;5.350;2023-03-14T05:25:35;23.75;;;3.20;;
18752;SDS011;9505;50.882;5.350;2023-03-14T05:28:00;23.77;;;3.20;;
18752;SDS011;9505;50.882;5.350;2023-03-14T05:30:26;26.25;;;3.45;;
18752;SDS011;9505;50.882;5.350;2023-03-14T05:32:53;20.65;;;2.67;;
18752;SDS011;9505;50.882;5.350;2023-03-14T05:35:18;25.48;;;3.30;;
18752;SDS011;9505;50.882;5.350;2023-03-14T05:37:44;30.90;;;4.28;;
18752;SDS011;9505;50.882;5.350;2023-03-14T05:40:10;25.83;;;3.70;;
18752;SDS011;9505;50.882;5.350;2023-03-14T05:42:36;23.15;;;3.15;;
18752;SDS011;9505;50.882;5.350;2023-03-14T05:45:01;27.10;;;3.83;;
18752;SDS011;9505;50.882;5.350;2023-03-14T05:47:27;25.10;;;3.78;;
18752;SDS011;9505;50.882;5.350;2023-03-14T05:49:53;24.48;;;3.45;;
18752;SDS011;9505;50.882;5.350;2023-03-14T05:52:18;25.00;;;3.40;;
18752;SDS011;9505;50.882;5.350;2023-03-14T05:54:44;24.73;;;3.55;;
18752;SDS011;9505;50.882;5.350;2023-03-14T05:57:10;27.77;;;4.10;;
18752;SDS011;9505;50.882;5.350;2023-03-14T05:59:36;21.90;;;3.30;;
18752;SDS011;9505;50.882;5.350;2023-03-14T06:02:01;29.20;;;3.95;;
18752;SDS011;9505;50.882;5.350;2023-03-14T06:04:27;21.50;;;3.20;;
18752;SDS011;9505;50.882;5.350;2023-03-14T06:06:52;30.98;;;4.55;;
18752;SDS011;9505;50.882;5.350;2023-03-14T06:09:18;24.42;;;3.85;;
18752;SDS011;9505;50.882;5.350;2023-03-14T06:11:45;24.73;;;3.60;;
18752;SDS011;9505;50.882;5.350;2023-03-14T06:14:11;26.27;;;4.10;;
18752;SDS011;9505;50.882;5.350;2023-03-14T06:16:37;23.83;;;3.60;;
18752;SDS011;9505;50.882;5.350;2023-03-14T06:19:02;21.98;;;3.72;;
18752;SDS011;9505;50.882;5.350;2023-03-14T06:21:28;25.45;;;4.25;;
18752;SDS011;9505;50.882;5.350;2023-03-14T06:23:53;21.90;;;3.90;;
18752;SDS011;9505;50.882;5.350;2023-03-14T06:26:19;26.35;;;3.90;;
18752;SDS011;9505;50.882;5.350;2023-03-14T06:28:45;28.23;;;4.97;;
18752;SDS011;9505;50.882;5.350;2023-03-14T06:31:10;27.50;;;4.82;;
18752;SDS011;9505;50.882;5.350;2023-03-14T06:33:36;23.90;;;4.20;;
18752;SDS011;9505;50.882;5.350;2023-03-14T06:36:01;24.98;;;4.65;;
18752;SDS011;9505;50.882;5.350;2023-03-14T06:38:27;29.35;;;4.75;;
18752;SDS011;9505;50.882;5.350;2023-03-14T06:40:53;29.77;;;5.40;;
18752;SDS011;9505;50.882;5.350;2023-03-14T06:43:18;26.33;;;4.90;;
18752;SDS011;9505;50.882;5.350;2023-03-14T06:45:44;25.52;;;4.68;;
18752;SDS011;9505;50.882;5.350;2023-03-14T06:48:10;34.45;;;6.15;;
18752;SDS011;9505;50.882;5.350;2023-03-14T06:50:35;25.75;;;4.22;;
18752;SDS011;9505;50.882;5.350;2023-03-14T06:53:01;24.85;;;4.28;;
18752;SDS011;9505;50.882;5.350;2023-03-14T06:55:26;25.27;;;4.10;;
18752;SDS011;9505;50.882;5.350;2023-03-14T06:57:52;25.65;;;4.03;;
18752;SDS011;9505;50.882;5.350;2023-03-14T07:00:18;23.67;;;3.83;;
18752;SDS011;9505;50.882;5.350;2023-03-14T07:02:44;25.60;;;4.05;;
18752;SDS011;9505;50.882;5.350;2023-03-14T07:05:09;24.55;;;4.00;;
18752;SDS011;9505;50.882;5.350;2023-03-14T07:07:35;26.27;;;3.83;;
18752;SDS011;9505;50.882;5.350;2023-03-14T07:10:01;24.48;;;3.92;;
18752;SDS011;9505;50.882;5.350;2023-03-14T07:12:26;29.90;;;4.40;;
18752;SDS011;9505;50.882;5.350;2023-03-14T07:14:52;31.75;;;4.60;;
18752;SDS011;9505;50.882;5.350;2023-03-14T07:17:17;25.63;;;3.80;;
18752;SDS011;9505;50.882;5.350;2023-03-14T07:19:43;28.42;;;4.25;;
18752;SDS011;9505;50.882;5.350;2023-03-14T07:22:08;27.30;;;3.85;;
18752;SDS011;9505;50.882;5.350;2023-03-14T07:24:34;27.23;;;4.00;;
18752;SDS011;9505;50.882;5.350;2023-03-14T07:27:00;24.35;;;3.78;;
18752;SDS011;9505;50.882;5.350;2023-03-14T07:29:25;26.45;;;3.90;;
18752;SDS011;9505;50.882;5.350;2023-03-14T07:31:51;23.35;;;3.47;;
18752;SDS011;9505;50.882;5.350;2023-03-14T07:34:16;32.22;;;4.63;;
18752;SDS011;9505;50.882;5.350;2023-03-14T07:36:42;23.85;;;3.38;;
18752;SDS011;9505;50.882;5.350;2023-03-14T07:39:07;22.70;;;3.58;;
18752;SDS011;9505;50.882;5.350;2023-03-14T07:41:33;26.95;;;3.80;;
18752;SDS011;9505;50.882;5.350;2023-03-14T07:44:00;24.73;;;3.55;;
18752;SDS011;9505;50.882;5.350;2023-03-14T07:46:25;22.50;;;3.58;;
18752;SDS011;9505;50.882;5.350;2023-03-14T07:48:51;23.33;;;3.80;;
18752;SDS011;9505;50.882;5.350;2023-03-14T07:51:16;26.60;;;3.75;;
18752;SDS011;9505;50.882;5.350;2023-03-14T07:53:42;26.20;;;3.80;;
18752;SDS011;9505;50.882;5.350;2023-03-14T07:56:08;23.27;;;3.70;;
18752;SDS011;9505;50.882;5.350;2023-03-14T07:58:34;24.60;;;3.58;;
18752;SDS011;9505;50.882;5.350;2023-03-14T08:01:00;27.23;;;3.85;;
18752;SDS011;9505;50.882;5.350;2023-03-14T08:03:25;27.40;;;4.03;;
18752;SDS011;9505;50.882;5.350;2023-03-14T08:05:51;24.60;;;3.60;;
18752;SDS011;9505;50.882;5.350;2023-03-14T08:08:17;22.10;;;3.60;;
18752;SDS011;9505;50.882;5.350;2023-03-14T08:10:43;25.90;;;4.00;;
18752;SDS011;9505;50.882;5.350;2023-03-14T08:13:09;23.63;;;3.78;;
18752;SDS011;9505;50.882;5.350;2023-03-14T08:15:35;25.25;;;3.88;;
18752;SDS011;9505;50.882;5.350;2023-03-14T08:18:02;31.83;;;4.82;;
18752;SDS011;9505;50.882;5.350;2023-03-14T08:20:29;24.40;;;3.55;;
18752;SDS011;9505;50.882;5.350;2023-03-14T08:22:55;29.60;;;4.35;;
18752;SDS011;9505;50.882;5.350;2023-03-14T08:25:22;25.58;;;3.95;;
18752;SDS011;9505;50.882;5.350;2023-03-14T08:27:48;20.20;;;3.60;;
18752;SDS011;9505;50.882;5.350;2023-03-14T08:30:14;35.13;;;5.50;;
18752;SDS011;9505;50.882;5.350;2023-03-14T08:32:41;24.77;;;4.35;;
18752;SDS011;9505;50.882;5.350;2023-03-14T08:35:07;24.27;;;3.95;;
18752;SDS011;9505;50.882;5.350;2023-03-14T08:37:33;18.20;;;3.53;;
18752;SDS011;9505;50.882;5.350;2023-03-14T08:40:00;24.33;;;3.80;;
18752;SDS011;9505;50.882;5.350;2023-03-14T08:42:26;26.77;;;4.25;;
18752;SDS011;9505;50.882;5.350;2023-03-14T08:44:52;27.42;;;4.03;;
18752;SDS011;9505;50.882;5.350;2023-03-14T08:47:18;23.00;;;3.67;;
18752;SDS011;9505;50.882;5.350;2023-03-14T08:49:44;21.35;;;3.28;;
18752;SDS011;9505;50.882;5.350;2023-03-14T08:52:09;16.73;;;2.90;;
18752;SDS011;9505;50.882;5.350;2023-03-14T08:54:35;18.88;;;2.97;;
18752;SDS011;9505;50.882;5.350;2023-03-14T08:57:00;30.75;;;4.50;;
18752;SDS011;9505;50.882;5.350;2023-03-14T08:59:26;19.65;;;3.60;;
18752;SDS011;9505;50.882;5.350;2023-03-14T09:01:52;18.10;;;3.40;;
18752;SDS011;9505;50.882;5.350;2023-03-14T09:04:18;19.67;;;3.88;;
18752;SDS011;9505;50.882;5.350;2023-03-14T09:06:44;28.35;;;4.68;;
18752;SDS011;9505;50.882;5.350;2023-03-14T09:09:10;21.45;;;4.20;;
18752;SDS011;9505;50.882;5.350;2023-03-14T09:11:35;23.92;;;3.80;;
18752;SDS011;9505;50.882;5.350;2023-03-14T09:14:01;24.20;;;4.68;;
18752;SDS011;9505;50.882;5.350;2023-03-14T09:16:26;22.17;;;3.78;;
18752;SDS011;9505;50.882;5.350;2023-03-14T09:18:52;12.00;;;2.75;;
18752;SDS011;9505;50.882;5.350;2023-03-14T09:21:24;20.20;;;3.42;;
18752;SDS011;9505;50.882;5.350;2023-03-14T09:23:53;19.80;;;3.67;;
18752;SDS011;9505;50.882;5.350;2023-03-14T09:26:18;24.80;;;4.50;;
18752;SDS011;9505;50.882;5.350;2023-03-14T09:28:44;19.02;;;3.65;;
18752;SDS011;9505;50.882;5.350;2023-03-14T09:31:10;32.78;;;5.47;;
18752;SDS011;9505;50.882;5.350;2023-03-14T09:33:37;21.67;;;3.85;;
18752;SDS011;9505;50.882;5.350;2023-03-14T09:36:03;29.92;;;4.25;;
18752;SDS011;9505;50.882;5.350;2023-03-14T09:38:29;20.52;;;3.10;;
18752;SDS011;9505;50.882;5.350;2023-03-14T09:40:57;23.25;;;3.83;;
18752;SDS011;9505;50.882;5.350;2023-03-14T09:43:25;24.17;;;3.50;;
18752;SDS011;9505;50.882;5.350;2023-03-14T09:45:53;19.80;;;3.00;;
18752;SDS011;9505;50.882;5.350;2023-03-14T09:48:20;22.55;;;3.05;;
18752;SDS011;9505;50.882;5.350;2023-03-14T09:50:51;30.52;;;4.20;;
18752;SDS011;9505;50.882;5.350;2023-03-14T09:53:26;17.38;;;2.67;;
18752;SDS011;9505;50.882;5.350;2023-03-14T09:55:53;13.93;;;2.38;;
18752;SDS011;9505;50.882;5.350;2023-03-14T09:58:23;15.75;;;2.58;;
18752;SDS011;9505;50.882;5.350;2023-03-14T10:00:49;16.40;;;2.55;;
18752;SDS011;9505;50.882;5.350;2023-03-14T10:05:51;17.90;;;2.20;;
18752;SDS011;9505;50.882;5.350;2023-03-14T10:08:18;27.08;;;3.85;;
18752;SDS011;9505;50.882;5.350;2023-03-14T10:10:44;17.75;;;2.90;;
18752;SDS011;9505;50.882;5.350;2023-03-14T10:13:19;19.52;;;2.90;;
18752;SDS011;9505;50.882;5.350;2023-03-14T10:15:51;14.00;;;2.28;;
18752;SDS011;9505;50.882;5.350;2023-03-14T10:18:21;18.70;;;2.67;;
18752;SDS011;9505;50.882;5.350;2023-03-14T10:20:49;22.45;;;3.25;;
18752;SDS011;9505;50.882;5.350;2023-03-14T10:23:26;12.10;;;2.20;;
18752;SDS011;9505;50.882;5.350;2023-03-14T10:26:07;17.75;;;2.30;;
18752;SDS011;9505;50.882;5.350;2023-03-14T10:28:39;21.88;;;3.00;;
18752;SDS011;9505;50.882;5.350;2023-03-14T10:31:08;16.33;;;2.58;;
18752;SDS011;9505;50.882;5.350;2023-03-14T10:33:34;10.80;;;1.60;;
18752;SDS011;9505;50.882;5.350;2023-03-14T10:38:44;13.35;;;2.38;;
18752;SDS011;9505;50.882;5.350;2023-03-14T10:43:50;20.08;;;2.83;;
18752;SDS011;9505;50.882;5.350;2023-03-14T10:46:19;19.40;;;2.58;;
18752;SDS011;9505;50.882;5.350;2023-03-14T10:48:45;22.38;;;2.88;;
18752;SDS011;9505;50.882;5.350;2023-03-14T10:53:42;14.15;;;2.03;;
18752;SDS011;9505;50.882;5.350;2023-03-14T10:56:15;19.10;;;2.90;;
18752;SDS011;9505;50.882;5.350;2023-03-14T10:58:46;20.55;;;2.78;;
18752;SDS011;9505;50.882;5.350;2023-03-14T11:04:05;12.27;;;1.80;;
18752;SDS011;9505;50.882;5.350;2023-03-14T11:11:50;18.35;;;2.67;;
18752;SDS011;9505;50.882;5.350;2023-03-14T11:16:56;17.60;;;2.42;;
18752;SDS011;9505;50.882;5.350;2023-03-14T11:19:31;25.45;;;3.38;;
18752;SDS011;9505;50.882;5.350;2023-03-14T11:22:12;21.30;;;3.20;;
18752;SDS011;9505;50.882;5.350;2023-03-14T11:28:00;22.67;;;3.90;;
18752;SDS011;9505;50.882;5.350;2023-03-14T11:30:54;38.78;;;6.30;;
18752;SDS011;9505;50.882;5.350;2023-03-14T11:36:12;17.45;;;3.38;;
18752;SDS011;9505;50.882;5.350;2023-03-14T11:38:49;28.05;;;4.65;;
18752;SDS011;9505;50.882;5.350;2023-03-14T11:41:20;27.63;;;4.20;;
18752;SDS011;9505;50.882;5.350;2023-03-14T11:43:54;27.17;;;4.30;;
18752;SDS011;9505;50.882;5.350;2023-03-14T11:46:25;22.08;;;3.25;;
18752;SDS011;9505;50.882;5.350;2023-03-14T11:49:06;24.13;;;3.67;;
18752;SDS011;9505;50.882;5.350;2023-03-14T11:51:36;23.02;;;3.75;;
18752;SDS011;9505;50.882;5.350;2023-03-14T11:54:08;26.70;;;3.63;;
18752;SDS011;9505;50.882;5.350;2023-03-14T12:02:19;22.08;;;3.53;;
18752;SDS011;9505;50.882;5.350;2023-03-14T12:10:40;23.60;;;3.63;;
18752;SDS011;9505;50.882;5.350;2023-03-14T12:13:11;24.13;;;3.60;;
18752;SDS011;9505;50.882;5.350;2023-03-14T12:16:01;26.25;;;4.15;;
18752;SDS011;9505;50.882;5.350;2023-03-14T12:18:29;27.08;;;3.65;;
18752;SDS011;9505;50.882;5.350;2023-03-14T12:20:57;24.40;;;3.85;;
18752;SDS011;9505;50.882;5.350;2023-03-14T12:23:28;20.70;;;3.35;;
18752;SDS011;9505;50.882;5.350;2023-03-14T12:28:37;23.13;;;3.25;;
18752;SDS011;9505;50.882;5.350;2023-03-14T12:45:15;24.42;;;4.15;;
18752;SDS011;9505;50.882;5.350;2023-03-14T12:48:10;24.20;;;3.88;;
18752;SDS011;9505;50.882;5.350;2023-03-14T12:50:46;27.92;;;4.53;;
18752;SDS011;9505;50.882;5.350;2023-03-14T13:01:32;36.90;;;5.05;;
18752;SDS011;9505;50.882;5.350;2023-03-14T13:04:03;40.10;;;4.93;;
18752;SDS011;9505;50.882;5.350;2023-03-14T13:06:50;38.28;;;4.90;;
18752;SDS011;9505;50.882;5.350;2023-03-14T13:11:54;37.50;;;4.13;;
18752;SDS011;9505;50.882;5.350;2023-03-14T13:14:21;36.45;;;4.47;;
18752;SDS011;9505;50.882;5.350;2023-03-14T13:16:48;32.47;;;4.88;;
18752;SDS011;9505;50.882;5.350;2023-03-14T13:19:15;38.78;;;5.03;;
18752;SDS011;9505;50.882;5.350;2023-03-14T13:21:45;28.88;;;4.78;;
18752;SDS011;9505;50.882;5.350;2023-03-14T13:24:24;34.28;;;5.43;;
18752;SDS011;9505;50.882;5.350;2023-03-14T13:26:55;35.63;;;4.90;;
18752;SDS011;9505;50.882;5.350;2023-03-14T13:29:24;36.40;;;4.55;;
18752;SDS011;9505;50.882;5.350;2023-03-14T13:31:52;38.35;;;5.55;;
18752;SDS011;9505;50.882;5.350;2023-03-14T13:34:28;34.42;;;4.75;;
18752;SDS011;9505;50.882;5.350;2023-03-14T13:36:55;29.95;;;4.40;;
18752;SDS011;9505;50.882;5.350;2023-03-14T13:39:22;33.33;;;4.95;;
18752;SDS011;9505;50.882;5.350;2023-03-14T13:41:53;38.40;;;5.30;;
18752;SDS011;9505;50.882;5.350;2023-03-14T13:44:25;27.42;;;4.65;;
18752;SDS011;9505;50.882;5.350;2023-03-14T13:47:02;38.60;;;5.88;;
18752;SDS011;9505;50.882;5.350;2023-03-14T13:49:30;27.58;;;4.25;;
18752;SDS011;9505;50.882;5.350;2023-03-14T13:52:00;28.27;;;4.78;;
18752;SDS011;9505;50.882;5.350;2023-03-14T13:54:26;35.60;;;5.65;;
18752;SDS011;9505;50.882;5.350;2023-03-14T13:57:03;43.55;;;5.75;;
18752;SDS011;9505;50.882;5.350;2023-03-14T13:59:30;34.78;;;4.85;;
18752;SDS011;9505;50.882;5.350;2023-03-14T14:01:58;46.13;;;7.07;;
18752;SDS011;9505;50.882;5.350;2023-03-14T14:04:45;31.40;;;4.95;;
18752;SDS011;9505;50.882;5.350;2023-03-14T14:07:13;41.10;;;6.55;;
18752;SDS011;9505;50.882;5.350;2023-03-14T14:09:44;33.13;;;4.88;;
18752;SDS011;9505;50.882;5.350;2023-03-14T14:12:14;39.15;;;5.25;;
18752;SDS011;9505;50.882;5.350;2023-03-14T14:17:20;31.48;;;4.40;;
18752;SDS011;9505;50.882;5.350;2023-03-14T14:19:50;32.53;;;4.82;;
18752;SDS011;9505;50.882;5.350;2023-03-14T14:22:17;32.92;;;4.85;;
18752;SDS011;9505;50.882;5.350;2023-03-14T14:24:43;34.63;;;4.40;;
18752;SDS011;9505;50.882;5.350;2023-03-14T14:27:13;32.47;;;4.15;;
18752;SDS011;9505;50.882;5.350;2023-03-14T14:29:39;32.83;;;4.53;;
18752;SDS011;9505;50.882;5.350;2023-03-14T14:34:38;30.80;;;4.45;;
18752;SDS011;9505;50.882;5.350;2023-03-14T14:37:19;27.35;;;3.88;;
18752;SDS011;9505;50.882;5.350;2023-03-14T14:39:46;29.52;;;4.03;;
18752;SDS011;9505;50.882;5.350;2023-03-14T14:42:15;27.30;;;4.20;;
18752;SDS011;9505;50.882;5.350;2023-03-14T14:44:43;25.50;;;3.90;;
18752;SDS011;9505;50.882;5.350;2023-03-14T14:47:13;29.55;;;4.03;;
18752;SDS011;9505;50.882;5.350;2023-03-14T14:49:40;28.25;;;3.95;;
18752;SDS011;9505;50.882;5.350;2023-03-14T14:52:10;27.67;;;4.13;;
18752;SDS011;9505;50.882;5.350;2023-03-14T14:54:42;29.92;;;4.30;;
18752;SDS011;9505;50.882;5.350;2023-03-14T14:57:22;32.70;;;4.45;;
18752;SDS011;9505;50.882;5.350;2023-03-14T14:59:51;33.45;;;5.03;;
18752;SDS011;9505;50.882;5.350;2023-03-14T15:02:32;31.60;;;4.35;;
18752;SDS011;9505;50.882;5.350;2023-03-14T15:05:05;28.88;;;4.15;;
18752;SDS011;9505;50.882;5.350;2023-03-14T15:07:33;34.05;;;4.28;;
18752;SDS011;9505;50.882;5.350;2023-03-14T15:09:58;32.88;;;4.10;;
18752;SDS011;9505;50.882;5.350;2023-03-14T15:12:24;27.58;;;4.00;;
18752;SDS011;9505;50.882;5.350;2023-03-14T15:14:49;29.10;;;4.32;;
18752;SDS011;9505;50.882;5.350;2023-03-14T15:17:15;25.45;;;3.75;;
18752;SDS011;9505;50.882;5.350;2023-03-14T15:19:41;22.75;;;4.10;;
18752;SDS011;9505;50.882;5.350;2023-03-14T15:22:12;37.65;;;4.78;;
18752;SDS011;9505;50.882;5.350;2023-03-14T15:24:39;36.92;;;5.72;;
18752;SDS011;9505;50.882;5.350;2023-03-14T15:27:08;36.85;;;4.65;;
18752;SDS011;9505;50.882;5.350;2023-03-14T15:29:40;29.98;;;4.75;;
18752;SDS011;9505;50.882;5.350;2023-03-14T15:32:09;33.25;;;4.03;;
18752;SDS011;9505;50.882;5.350;2023-03-14T15:34:39;17.73;;;3.13;;
18752;SDS011;9505;50.882;5.350;2023-03-14T15:37:05;27.25;;;3.72;;
18752;SDS011;9505;50.882;5.350;2023-03-14T15:39:34;26.90;;;4.18;;
18752;SDS011;9505;50.882;5.350;2023-03-14T15:42:00;28.73;;;3.15;;
18752;SDS011;9505;50.882;5.350;2023-03-14T15:44:26;24.48;;;3.08;;
18752;SDS011;9505;50.882;5.350;2023-03-14T15:46:51;27.70;;;3.70;;
18752;SDS011;9505;50.882;5.350;2023-03-14T15:49:17;25.23;;;3.45;;
18752;SDS011;9505;50.882;5.350;2023-03-14T15:51:42;24.67;;;3.47;;
18752;SDS011;9505;50.882;5.350;2023-03-14T15:54:08;31.33;;;3.60;;
18752;SDS011;9505;50.882;5.350;2023-03-14T15:56:33;29.00;;;4.00;;
18752;SDS011;9505;50.882;5.350;2023-03-14T15:58:59;27.58;;;3.22;;
18752;SDS011;9505;50.882;5.350;2023-03-14T16:01:25;23.75;;;3.05;;
18752;SDS011;9505;50.882;5.350;2023-03-14T16:03:51;32.50;;;3.78;;
18752;SDS011;9505;50.882;5.350;2023-03-14T16:06:17;25.30;;;3.42;;
18752;SDS011;9505;50.882;5.350;2023-03-14T16:08:44;28.35;;;3.97;;
18752;SDS011;9505;50.882;5.350;2023-03-14T16:11:11;32.03;;;4.00;;
18752;SDS011;9505;50.882;5.350;2023-03-14T16:13:38;21.52;;;3.05;;
18752;SDS011;9505;50.882;5.350;2023-03-14T16:16:05;26.73;;;3.45;;